Time;durP1;ratioP1;P1;durP2;ratioP2;P2;SDS_P1;SDS_P2;PMS_P1;PMS_P2;Temp;Humidity;BMP_temperature;BMP_pressure;BME280_temperature;BME280_humidity;BME280_pressure;Samples;Min_cycle;Max_cycle;Signal;HPM_P1;HPM_P2
2021/12/12 00:00:14;;;;;;;5.10;4.60;;;6.50;91.80;;;;;;5108927;28;20489;-47
2021/12/12 00:02:59;;;;;;;6.10;4.87;;;6.40;91.80;;;;;;5115884;28;20436;-46
2021/12/12 00:05:33;;;;;;;6.50;5.50;;;6.40;91.90;;;;;;5106944;28;20717;-46
2021/12/12 00:08:00;;;;;;;5.10;4.60;;;6.30;91.90;;;;;;5112363;28;20443;-46
2021/12/12 00:10:29;;;;;;;5.50;5.00;;;6.30;92.00;;;;;;5110195;28;20421;-46
2021/12/12 00:12:59;;;;;;;6.60;5.30;;;6.30;92.00;;;;;;5106831;28;20536;-47
2021/12/12 00:15:26;;;;;;;6.13;5.53;;;6.30;92.10;;;;;;5111024;28;20466;-47
2021/12/12 00:17:53;;;;;;;5.30;4.80;;;6.20;92.10;;;;;;5106544;28;20454;-47
2021/12/12 00:20:21;;;;;;;6.00;5.40;;;6.20;92.10;;;;;;5107669;28;20414;-47
2021/12/12 00:22:48;;;;;;;5.63;4.97;;;6.20;92.20;;;;;;5107518;28;20439;-46
2021/12/12 00:25:14;;;;;;;5.80;5.30;;;6.20;92.20;;;;;;5107873;28;20418;-46
2021/12/12 00:27:40;;;;;;;5.80;5.13;;;6.20;92.50;;;;;;5105915;28;20457;-47
2021/12/12 00:30:08;;;;;;;6.00;5.40;;;6.20;92.30;;;;;;5106488;28;20418;-46
2021/12/12 00:32:36;;;;;;;4.87;4.47;;;6.20;92.30;;;;;;5106697;28;20466;-46
2021/12/12 00:35:07;;;;;;;6.07;5.33;;;6.10;92.20;;;;;;5108000;28;20421;-46
2021/12/12 00:37:33;;;;;;;5.80;5.30;;;6.20;92.30;;;;;;5106726;28;20430;-46
2021/12/12 00:40:19;;;;;;;6.70;5.40;;;6.10;92.20;;;;;;5107380;28;20842;-46
2021/12/12 00:42:46;;;;;;;5.70;4.57;;;6.10;92.10;;;;;;5107901;28;20425;-46
2021/12/12 00:45:14;;;;;;;5.93;5.43;;;6.00;92.00;;;;;;5107108;28;20421;-44
2021/12/12 00:47:41;;;;;;;7.00;6.40;;;6.00;92.00;;;;;;5106947;28;20862;-45
2021/12/12 00:50:13;;;;;;;5.87;5.33;;;6.00;92.00;;;;;;5115532;28;20424;-45
2021/12/12 00:52:42;;;;;;;5.90;5.40;;;6.00;92.00;;;;;;5117794;28;20641;-45
2021/12/12 00:55:08;;;;;;;6.17;5.57;;;6.00;91.90;;;;;;5118206;28;20473;-45
2021/12/12 00:57:34;;;;;;;6.63;5.83;;;5.90;91.90;;;;;;5116859;28;20506;-45
2021/12/12 01:00:00;;;;;;;6.40;5.90;;;5.90;91.90;;;;;;5117509;28;20176;-45
2021/12/12 01:02:29;;;;;;;6.27;5.67;;;5.90;91.90;;;;;;5115735;28;20211;-45
2021/12/12 01:04:57;;;;;;;6.20;5.40;;;5.90;91.90;;;;;;5116800;28;20455;-45
2021/12/12 01:07:28;;;;;;;6.03;5.43;;;5.80;91.90;;;;;;5116347;28;20437;-45
2021/12/12 01:10:04;;;;;;;6.40;5.80;;;5.80;91.90;;;;;;5116230;28;20479;-46
2021/12/12 01:12:33;;;;;;;6.67;6.07;;;5.80;91.90;;;;;;5117182;28;20814;-45
2021/12/12 01:15:14;;;;;;;6.60;5.93;;;5.80;92.00;;;;;;5116609;28;20418;-45
2021/12/12 01:17:42;;;;;;;5.93;5.07;;;5.80;91.90;;;;;;5117582;28;20520;-45
2021/12/12 01:20:33;;;;;;;6.30;5.50;;;5.80;92.00;;;;;;5117589;28;20417;-45
2021/12/12 01:23:05;;;;;;;6.10;5.30;;;5.80;92.00;;;;;;5117626;28;20478;-45
2021/12/12 01:25:36;;;;;;;6.80;6.10;;;5.80;92.00;;;;;;5118221;28;20457;-46
2021/12/12 01:28:03;;;;;;;7.83;6.20;;;5.80;92.00;;;;;;5119546;28;20484;-46
2021/12/12 01:30:29;;;;;;;6.47;5.40;;;5.80;91.90;;;;;;5122429;28;20414;-45
2021/12/12 01:32:57;;;;;;;6.17;5.60;;;5.80;91.70;;;;;;5120991;28;20474;-46
2021/12/12 01:35:24;;;;;;;5.27;4.83;;;5.70;91.50;;;;;;5122054;28;20230;-46
2021/12/12 01:40:42;;;;;;;6.80;5.60;;;5.70;91.50;;;;;;5121473;28;20404;-46
2021/12/12 01:43:16;;;;;;;6.23;5.63;;;5.70;91.50;;;;;;5121761;27;20447;-46
2021/12/12 01:45:46;;;;;;;6.90;5.90;;;5.70;91.50;;;;;;5120539;28;20698;-46
2021/12/12 01:48:26;;;;;;;6.53;5.93;;;5.70;91.50;;;;;;5121002;28;20440;-46
2021/12/12 01:50:59;;;;;;;7.40;5.80;;;5.70;91.40;;;;;;5120746;28;20462;-46
2021/12/12 01:53:27;;;;;;;6.10;5.50;;;5.70;91.30;;;;;;5120986;28;20858;-46
2021/12/12 01:55:56;;;;;;;6.00;5.40;;;5.70;91.20;;;;;;5120771;28;20484;-46
2021/12/12 01:58:25;;;;;;;5.30;4.80;;;5.70;91.30;;;;;;5121052;28;20763;-46
2021/12/12 02:00:53;;;;;;;6.90;5.60;;;5.60;91.10;;;;;;5121840;28;20417;-47
2021/12/12 02:03:22;;;;;;;5.77;5.27;;;5.70;91.20;;;;;;5121700;28;20471;-46
2021/12/12 02:05:49;;;;;;;7.23;6.00;;;5.70;91.10;;;;;;5120282;28;20417;-46
2021/12/12 02:08:17;;;;;;;5.83;4.70;;;5.60;91.00;;;;;;5119627;28;20445;-46
2021/12/12 02:10:47;;;;;;;6.60;5.50;;;5.60;91.00;;;;;;5118392;28;20874;-46
2021/12/12 02:13:15;;;;;;;6.83;5.87;;;5.60;91.00;;;;;;5119333;27;20587;-46
2021/12/12 02:15:43;;;;;;;6.10;5.50;;;5.70;91.00;;;;;;5119433;28;20422;-46
2021/12/12 02:18:13;;;;;;;7.40;5.40;;;5.60;90.90;;;;;;5119422;28;20854;-46
2021/12/12 02:20:52;;;;;;;6.30;5.20;;;5.60;90.80;;;;;;5120651;28;20675;-44
2021/12/12 02:23:33;;;;;;;6.17;5.50;;;5.60;90.80;;;;;;5120968;28;20468;-44
2021/12/12 02:37:02;;;;;;;6.60;5.40;;;5.50;90.50;;;;;;5120494;28;20462;-45
2021/12/12 02:39:28;;;;;;;5.53;4.93;;;5.50;90.40;;;;;;5120947;28;20444;-45
2021/12/12 02:41:57;;;;;;;7.63;5.10;;;5.40;90.00;;;;;;5121405;28;20437;-45
2021/12/12 02:44:29;;;;;;;5.30;4.70;;;5.40;89.90;;;;;;5120680;27;20215;-45
2021/12/12 02:46:58;;;;;;;4.83;4.40;;;5.40;89.70;;;;;;5120988;28;20390;-44
2021/12/12 02:49:38;;;;;;;8.03;4.10;;;5.40;89.70;;;;;;5119710;28;20878;-45
2021/12/12 02:52:09;;;;;;;6.27;4.87;;;5.40;89.70;;;;;;5120931;28;20453;-45
2021/12/12 02:54:35;;;;;;;5.00;4.60;;;5.30;89.60;;;;;;5120699;28;20880;-45
2021/12/12 02:57:02;;;;;;;4.93;4.00;;;5.40;89.80;;;;;;5120895;28;20398;-45
2021/12/12 02:59:31;;;;;;;6.93;5.00;;;5.30;89.70;;;;;;5121132;28;20457;-45
2021/12/12 03:02:05;;;;;;;4.50;4.10;;;5.30;89.80;;;;;;5120958;28;20401;-45
2021/12/12 03:04:31;;;;;;;6.87;4.83;;;5.30;89.80;;;;;;5121092;28;20411;-45
2021/12/12 03:06:57;;;;;;;5.53;4.60;;;5.30;89.80;;;;;;5121171;28;20554;-45
2021/12/12 03:09:36;;;;;;;4.80;4.00;;;5.30;89.80;;;;;;5120518;28;20498;-45
2021/12/12 03:12:09;;;;;;;4.20;3.80;;;5.30;89.80;;;;;;5120706;28;20672;-45
2021/12/12 03:14:36;;;;;;;5.03;4.40;;;5.30;89.80;;;;;;5120780;28;20491;-45
2021/12/12 03:17:20;;;;;;;4.93;4.33;;;5.20;89.70;;;;;;5119974;28;20787;-45
2021/12/12 03:19:48;;;;;;;5.17;4.60;;;5.20;89.70;;;;;;5119246;28;20695;-45
2021/12/12 03:22:14;;;;;;;5.77;5.27;;;5.20;89.80;;;;;;5120391;28;20498;-45
2021/12/12 03:24:40;;;;;;;5.67;4.90;;;5.20;90.00;;;;;;5120056;28;20417;-45
2021/12/12 03:27:07;;;;;;;5.77;5.07;;;5.10;89.80;;;;;;5119789;28;20417;-45
2021/12/12 03:29:33;;;;;;;5.93;5.30;;;5.10;89.80;;;;;;5120265;28;20179;-45
2021/12/12 03:32:08;;;;;;;5.10;4.20;;;5.10;89.70;;;;;;5119684;28;20410;-45
2021/12/12 03:34:38;;;;;;;5.73;4.60;;;5.00;89.90;;;;;;5120387;27;20424;-44
2021/12/12 03:37:07;;;;;;;8.40;4.50;;;5.00;90.00;;;;;;5120097;28;20827;-45
2021/12/12 03:39:38;;;;;;;4.97;3.93;;;4.90;90.00;;;;;;5119555;28;20832;-45
2021/12/12 03:42:10;;;;;;;5.80;4.77;;;4.90;90.00;;;;;;5119699;28;20440;-45
2021/12/12 03:44:38;;;;;;;6.50;4.60;;;4.90;90.10;;;;;;5120360;28;20410;-45
2021/12/12 03:47:11;;;;;;;4.93;4.43;;;4.90;90.10;;;;;;5119700;28;20477;-45
2021/12/12 03:49:37;;;;;;;5.30;4.80;;;4.80;90.10;;;;;;5119695;28;20417;-44
2021/12/12 03:52:05;;;;;;;6.13;5.50;;;4.80;90.20;;;;;;5118696;27;20481;-45
2021/12/12 03:54:31;;;;;;;5.30;4.90;;;4.80;90.20;;;;;;5119590;28;20512;-45
2021/12/12 03:56:57;;;;;;;5.43;4.37;;;4.70;90.30;;;;;;5118645;28;20433;-44
2021/12/12 03:59:24;;;;;;;5.43;4.90;;;4.70;90.30;;;;;;5119702;28;20176;-46
2021/12/12 04:01:51;;;;;;;4.97;4.50;;;4.70;90.30;;;;;;5119411;28;20194;-46
2021/12/12 04:04:25;;;;;;;5.37;4.07;;;4.60;90.30;;;;;;5119199;28;20505;-45
2021/12/12 04:06:53;;;;;;;5.87;4.90;;;4.60;90.40;;;;;;5119494;28;20417;-45
2021/12/12 04:09:20;;;;;;;5.40;4.90;;;4.50;90.40;;;;;;5119605;28;20842;-45
2021/12/12 04:11:52;;;;;;;5.90;4.50;;;4.60;90.50;;;;;;5119363;28;20440;-45
2021/12/12 04:14:18;;;;;;;5.03;4.53;;;4.50;90.50;;;;;;5119208;28;20511;-46
2021/12/12 04:16:48;;;;;;;5.40;4.70;;;4.50;90.60;;;;;;5119635;28;20420;-45
2021/12/12 04:19:14;;;;;;;4.60;4.20;;;4.40;90.50;;;;;;5118762;28;20426;-45
2021/12/12 04:21:41;;;;;;;5.97;4.37;;;4.40;90.60;;;;;;5119420;28;20478;-45
2021/12/12 04:24:07;;;;;;;5.20;4.50;;;4.30;90.60;;;;;;5119363;28;20669;-45
2021/12/12 04:26:38;;;;;;;4.90;4.40;;;4.30;90.60;;;;;;5119153;28;20415;-46
2021/12/12 04:29:07;;;;;;;5.67;4.97;;;4.30;90.60;;;;;;5118902;28;20717;-46
2021/12/12 04:31:33;;;;;;;5.37;4.87;;;4.20;90.60;;;;;;5118953;28;20406;-46
2021/12/12 04:33:59;;;;;;;8.10;5.60;;;4.20;90.70;;;;;;5118922;27;20474;-46
2021/12/12 04:36:45;;;;;;;6.27;4.87;;;4.20;90.70;;;;;;5119004;28;20402;-46
2021/12/12 04:39:15;;;;;;;6.63;5.60;;;4.10;90.60;;;;;;5118933;28;20430;-46
2021/12/12 04:41:43;;;;;;;5.67;4.43;;;4.10;90.70;;;;;;5119159;28;20816;-46
2021/12/12 04:44:09;;;;;;;6.20;5.33;;;4.00;90.70;;;;;;5118903;28;20563;-45
2021/12/12 04:52:21;;;;;;;7.30;5.40;;;3.90;90.80;;;;;;5116880;28;20527;-46
2021/12/12 04:54:54;;;;;;;4.47;4.07;;;3.90;90.80;;;;;;5117482;28;20575;-46
2021/12/12 04:57:24;;;;;;;5.37;4.80;;;3.90;90.90;;;;;;5117538;28;20475;-45
2021/12/12 04:59:56;;;;;;;9.10;5.20;;;3.80;90.90;;;;;;5117623;28;20429;-46
2021/12/12 05:02:25;;;;;;;4.83;4.43;;;3.80;90.90;;;;;;5116990;28;20997;-46
2021/12/12 05:05:07;;;;;;;5.23;4.20;;;3.80;90.90;;;;;;5118782;28;20818;-49
2021/12/12 05:07:54;;;;;;;5.53;4.47;;;3.80;91.00;;;;;;5117933;28;20434;-48
2021/12/12 05:10:23;;;;;;;5.53;4.43;;;3.80;91.00;;;;;;5117377;28;20508;-49
2021/12/12 05:13:07;;;;;;;4.60;3.90;;;3.80;91.00;;;;;;5116012;28;20469;-42
2021/12/12 05:15:42;;;;;;;7.30;4.47;;;3.80;90.90;;;;;;5116607;28;20405;-43
2021/12/12 05:18:26;;;;;;;4.83;4.20;;;3.90;90.90;;;;;;5116500;28;20824;-42
2021/12/12 05:21:08;;;;;;;6.80;4.47;;;3.90;90.90;;;;;;5117801;28;20398;-42
2021/12/12 05:23:36;;;;;;;6.27;4.37;;;3.90;90.90;;;;;;5116870;28;20430;-44
2021/12/12 05:26:17;;;;;;;5.97;4.27;;;3.90;90.90;;;;;;5118299;28;20418;-41
2021/12/12 05:28:50;;;;;;;4.97;4.20;;;3.90;90.90;;;;;;5118704;28;20433;-42
2021/12/12 05:31:19;;;;;;;10.30;4.90;;;3.90;90.90;;;;;;5117669;28;20735;-42
2021/12/12 05:33:45;;;;;;;6.77;4.30;;;3.90;90.90;;;;;;5117683;28;20746;-41
2021/12/12 05:36:12;;;;;;;4.87;4.40;;;3.90;90.90;;;;;;5116301;28;20413;-42
2021/12/12 05:38:39;;;;;;;4.77;4.27;;;3.80;90.80;;;;;;5116334;28;20529;-44
2021/12/12 05:41:05;;;;;;;5.50;5.00;;;3.80;90.80;;;;;;5117177;28;20852;-42
2021/12/12 05:43:31;;;;;;;5.87;4.50;;;3.80;90.90;;;;;;5118041;28;20430;-41
2021/12/12 05:45:57;;;;;;;4.30;3.90;;;3.80;90.90;;;;;;5117075;28;20804;-41
2021/12/12 05:48:23;;;;;;;5.73;4.20;;;3.80;90.90;;;;;;5118355;28;20458;-41
2021/12/12 05:50:50;;;;;;;6.07;4.10;;;3.80;90.90;;;;;;5118526;28;20180;-43
2021/12/12 05:53:16;;;;;;;5.13;4.63;;;3.70;90.90;;;;;;5118359;28;20218;-45
2021/12/12 05:55:44;;;;;;;5.47;4.50;;;3.70;90.90;;;;;;5117815;28;20458;-43
2021/12/12 05:58:13;;;;;;;5.40;4.87;;;3.70;90.90;;;;;;5118126;28;20428;-42
2021/12/12 06:00:46;;;;;;;5.73;5.23;;;3.70;90.90;;;;;;5118558;28;20796;-42
2021/12/12 06:03:15;;;;;;;8.07;4.60;;;3.60;90.90;;;;;;5117622;28;20437;-41
2021/12/12 06:05:41;;;;;;;5.73;4.73;;;3.60;90.90;;;;;;5117471;28;20415;-42
2021/12/12 06:08:08;;;;;;;5.70;5.03;;;3.60;90.90;;;;;;5118638;28;20434;-43
2021/12/12 06:10:35;;;;;;;5.87;4.20;;;3.60;90.90;;;;;;5118795;28;20495;-44
2021/12/12 06:13:03;;;;;;;5.90;5.30;;;3.60;90.90;;;;;;5118018;28;20502;-40
2021/12/12 06:15:30;;;;;;;5.80;5.20;;;3.60;90.90;;;;;;5121477;28;20812;-42
2021/12/12 06:17:56;;;;;;;5.80;5.20;;;3.50;90.90;;;;;;5121149;28;20705;-43
2021/12/12 06:20:23;;;;;;;5.80;5.07;;;3.50;90.90;;;;;;5122278;28;20414;-42
2021/12/12 06:22:49;;;;;;;4.60;4.20;;;3.50;90.90;;;;;;5121308;28;20891;-42
2021/12/12 06:25:15;;;;;;;5.63;4.90;;;3.50;91.00;;;;;;5120506;28;20409;-41
2021/12/12 06:27:41;;;;;;;6.57;5.87;;;3.50;91.00;;;;;;5120466;28;20544;-43
2021/12/12 06:30:10;;;;;;;6.40;5.80;;;3.50;91.10;;;;;;5120570;28;20496;-43
2021/12/12 06:32:36;;;;;;;6.60;5.87;;;3.40;91.10;;;;;;5120377;28;20208;-42
2021/12/12 06:35:02;;;;;;;5.80;5.30;;;3.40;91.10;;;;;;5120418;28;20853;-42
2021/12/12 06:37:28;;;;;;;6.17;5.20;;;3.40;91.20;;;;;;5120447;28;20448;-42
2021/12/12 06:39:54;;;;;;;6.00;5.40;;;3.40;91.30;;;;;;5119522;28;20413;-42
2021/12/12 06:42:20;;;;;;;6.43;5.67;;;3.40;91.40;;;;;;5120612;28;20436;-44
2021/12/12 06:44:46;;;;;;;6.63;6.03;;;3.40;91.50;;;;;;5120649;28;20447;-43
2021/12/12 06:47:16;;;;;;;5.83;5.33;;;3.40;91.60;;;;;;5121649;28;20532;-42
2021/12/12 06:49:43;;;;;;;7.30;5.30;;;3.40;91.60;;;;;;5121075;28;20562;-43
2021/12/12 06:52:11;;;;;;;6.87;5.33;;;3.40;91.60;;;;;;5120693;28;20925;-45
2021/12/12 06:54:38;;;;;;;6.83;6.10;;;3.40;91.60;;;;;;5112841;28;20489;-42
2021/12/12 06:57:07;;;;;;;6.10;5.50;;;3.30;91.60;;;;;;5103924;28;20472;-40
2021/12/12 06:59:37;;;;;;;8.23;6.00;;;3.30;91.60;;;;;;5100371;28;20722;-44
2021/12/12 07:02:05;;;;;;;6.50;5.80;;;3.30;91.60;;;;;;5099955;28;20456;-42
2021/12/12 07:04:32;;;;;;;5.40;4.77;;;3.30;91.60;;;;;;5100119;28;20422;-45
2021/12/12 07:06:59;;;;;;;6.00;5.43;;;3.30;91.70;;;;;;5099713;28;20730;-41
2021/12/12 07:09:27;;;;;;;6.80;5.90;;;3.30;91.70;;;;;;5100736;28;20426;-41
2021/12/12 07:11:57;;;;;;;6.17;5.57;;;3.30;91.70;;;;;;5106406;28;20449;-43
2021/12/12 07:14:23;;;;;;;6.80;6.20;;;3.30;91.70;;;;;;5106344;28;20499;-41
2021/12/12 07:16:50;;;;;;;7.23;6.63;;;3.30;91.70;;;;;;5107494;28;20419;-42
2021/12/12 07:19:17;;;;;;;6.33;5.70;;;3.30;91.80;;;;;;5099619;28;20414;-41
2021/12/12 07:21:43;;;;;;;5.30;4.80;;;3.30;91.80;;;;;;5100538;28;20399;-42
2021/12/12 07:24:10;;;;;;;5.10;4.60;;;3.30;91.80;;;;;;5100019;28;20423;-41
2021/12/12 07:26:36;;;;;;;6.27;5.57;;;3.30;91.80;;;;;;5100464;28;20422;-40
2021/12/12 07:29:04;;;;;;;6.00;5.13;;;3.30;91.70;;;;;;5100181;28;20415;-41
2021/12/12 07:31:32;;;;;;;4.40;4.00;;;3.30;91.80;;;;;;5098777;28;20810;-44
2021/12/12 07:34:00;;;;;;;4.87;4.37;;;3.30;91.80;;;;;;5099769;28;20565;-42
2021/12/12 07:36:28;;;;;;;5.33;4.70;;;3.30;91.70;;;;;;5098853;28;20422;-40
2021/12/12 07:38:59;;;;;;;5.67;4.80;;;3.40;91.80;;;;;;5099116;28;20458;-45
2021/12/12 07:41:27;;;;;;;4.40;4.00;;;3.40;91.70;;;;;;5100268;28;20825;-40
2021/12/12 07:43:53;;;;;;;5.17;4.67;;;3.50;91.80;;;;;;5107381;28;20432;-40
2021/12/12 07:46:20;;;;;;;4.23;3.83;;;3.70;91.80;;;;;;5120326;28;20417;-41
2021/12/12 07:48:47;;;;;;;3.97;3.63;;;3.90;91.70;;;;;;5120222;28;20824;-42
2021/12/12 07:51:14;;;;;;;3.73;3.00;;;4.10;91.40;;;;;;5119242;28;20458;-41
2021/12/12 07:53:40;;;;;;;5.00;3.80;;;4.40;91.20;;;;;;5117938;28;21005;-41
2021/12/12 07:56:06;;;;;;;3.50;3.20;;;4.70;90.90;;;;;;5117034;28;20472;-43
2021/12/12 07:58:32;;;;;;;4.10;3.40;;;5.00;90.40;;;;;;5117115;28;20498;-44
2021/12/12 08:01:00;;;;;;;3.40;3.10;;;5.30;89.80;;;;;;5117751;28;20413;-42
2021/12/12 08:03:30;;;;;;;4.00;3.50;;;5.70;89.20;;;;;;5118494;28;20718;-43
2021/12/12 08:05:59;;;;;;;3.23;2.83;;;6.20;88.60;;;;;;5118775;28;20448;-43
2021/12/12 08:08:26;;;;;;;3.60;2.87;;;6.70;87.70;;;;;;5119252;28;20663;-42
2021/12/12 08:10:55;;;;;;;4.00;3.13;;;7.20;86.70;;;;;;5118116;28;20836;-42
2021/12/12 08:13:21;;;;;;;3.40;3.00;;;7.70;85.70;;;;;;5118887;28;20485;-44
2021/12/12 08:15:48;;;;;;;3.20;2.80;;;8.30;84.60;;;;;;5118642;28;20449;-43
2021/12/12 08:18:15;;;;;;;3.17;2.87;;;8.70;83.10;;;;;;5118871;28;20412;-44
2021/12/12 08:20:45;;;;;;;3.10;2.80;;;9.20;81.40;;;;;;5119364;28;20422;-42
2021/12/12 08:23:13;;;;;;;3.27;2.90;;;9.60;79.70;;;;;;5118602;28;20421;-43
2021/12/12 08:25:39;;;;;;;3.00;2.70;;;9.70;77.90;;;;;;5117656;28;20431;-42
2021/12/12 08:28:06;;;;;;;3.53;3.23;;;9.60;77.00;;;;;;5118659;28;20753;-45
2021/12/12 08:30:33;;;;;;;3.80;3.50;;;9.40;76.30;;;;;;5117326;28;21141;-43
2021/12/12 08:33:00;;;;;;;3.60;3.07;;;9.20;76.00;;;;;;5118996;28;20467;-43
2021/12/12 08:35:28;;;;;;;3.70;3.40;;;9.00;76.20;;;;;;5116281;28;20519;-43
2021/12/12 08:37:56;;;;;;;3.57;3.00;;;8.70;76.40;;;;;;5115603;28;20420;-43
2021/12/12 08:40:25;;;;;;;3.67;3.30;;;8.50;76.70;;;;;;5116057;28;20448;-44
2021/12/12 08:42:53;;;;;;;3.13;2.83;;;8.30;76.70;;;;;;5116643;28;20424;-42
2021/12/12 08:45:22;;;;;;;3.30;3.00;;;8.00;76.90;;;;;;5115798;28;20845;-42
2021/12/12 08:47:50;;;;;;;3.23;2.87;;;7.80;77.20;;;;;;5116559;28;20422;-44
2021/12/12 08:50:19;;;;;;;3.27;2.50;;;7.70;77.80;;;;;;5119803;28;20490;-43
2021/12/12 08:52:47;;;;;;;3.40;3.10;;;7.50;78.00;;;;;;5101762;28;20526;-42
2021/12/12 08:55:19;;;;;;;4.00;3.20;;;7.40;78.30;;;;;;5117680;28;20505;-44
2021/12/12 08:57:59;;;;;;;3.70;3.17;;;7.30;78.50;;;;;;5117710;28;20468;-44
2021/12/12 09:00:34;;;;;;;3.73;3.43;;;7.20;78.70;;;;;;5117094;28;20418;-42
2021/12/12 09:03:00;;;;;;;3.60;3.30;;;7.20;78.90;;;;;;5117722;28;20763;-44
2021/12/12 09:05:30;;;;;;;3.27;2.80;;;7.20;79.00;;;;;;5118128;28;20539;-43
2021/12/12 09:08:00;;;;;;;3.70;2.83;;;7.10;78.90;;;;;;5116142;28;20461;-41
2021/12/12 09:10:34;;;;;;;3.47;3.03;;;7.10;78.80;;;;;;5116521;28;20486;-43
2021/12/12 09:13:11;;;;;;;3.20;2.90;;;7.10;79.00;;;;;;5116695;28;20507;-41
2021/12/12 09:15:49;;;;;;;3.90;3.50;;;7.10;78.80;;;;;;5118137;28;20517;-42
2021/12/12 09:18:31;;;;;;;3.33;3.03;;;7.10;78.70;;;;;;5116265;28;20719;-43
2021/12/12 09:21:09;;;;;;;4.07;2.90;;;7.20;78.50;;;;;;5105407;28;20932;-42
2021/12/12 09:23:49;;;;;;;5.70;3.07;;;7.50;78.20;;;;;;5078706;28;20434;-43
2021/12/12 09:26:21;;;;;;;3.93;2.63;;;7.80;78.10;;;;;;5095877;28;20430;-41
2021/12/12 09:28:56;;;;;;;2.63;2.43;;;8.20;77.60;;;;;;5096036;28;20445;-42
2021/12/12 09:31:33;;;;;;;13.13;3.17;;;8.70;77.00;;;;;;5097683;28;20499;-46
2021/12/12 09:34:15;;;;;;;11.80;4.83;;;9.60;96.70;;;;;;5098110;28;20527;-45
2021/12/12 09:36:48;;;;;;;9.93;3.37;;;12.80;99.90;;;;;;5097460;28;20511;-45
2021/12/12 09:39:24;;;;;;;4.93;2.83;;;14.60;95.70;;;;;;5110237;28;20468;-46
2021/12/12 09:42:20;;;;;;;5.83;3.33;;;15.60;92.60;;;;;;5116038;28;20457;-49
2021/12/12 09:45:25;;;;;;;5.10;2.67;;;16.70;88.80;;;;;;5116526;28;20426;-47
2021/12/12 09:51:28;;;;;;;6.33;2.17;;;18.10;78.80;;;;;;5036140;28;20423;-46
2021/12/12 09:53:57;;;;;;;3.30;2.27;;;18.60;75.50;;;;;;5037117;28;20473;-46
2021/12/12 09:56:33;;;;;;;5.40;2.47;;;18.90;73.10;;;;;;5097834;28;20448;-46
2021/12/12 09:59:07;;;;;;;6.57;2.30;;;19.20;71.50;;;;;;5121719;27;20511;-47
2021/12/12 10:01:39;;;;;;;4.60;2.60;;;19.50;68.60;;;;;;5119845;28;20490;-46
2021/12/12 10:04:15;;;;;;;4.43;2.40;;;19.60;66.70;;;;;;5120088;28;20815;-47
2021/12/12 10:07:05;;;;;;;7.43;2.20;;;19.60;65.00;;;;;;5122202;28;20410;-47
2021/12/12 10:09:59;;;;;;;3.27;2.30;;;19.40;64.40;;;;;;5121069;28;20860;-46
2021/12/12 10:12:29;;;;;;;3.07;2.37;;;19.20;63.70;;;;;;5118848;28;20461;-46
2021/12/12 10:15:18;;;;;;;3.43;2.13;;;19.20;63.30;;;;;;5103419;28;20425;-46
2021/12/12 10:17:49;;;;;;;4.80;1.80;;;19.10;62.80;;;;;;5119968;28;20760;-47
2021/12/12 10:20:29;;;;;;;5.90;2.90;;;19.00;63.00;;;;;;5120459;28;20445;-48
2021/12/12 10:23:16;;;;;;;3.07;1.80;;;19.00;62.00;;;;;;5120154;28;20711;-46
2021/12/12 10:25:45;;;;;;;5.90;1.60;;;18.80;61.60;;;;;;5120934;28;20444;-47
2021/12/12 10:28:42;;;;;;;3.90;1.83;;;18.80;60.90;;;;;;5121727;28;20432;-44
2021/12/12 10:31:29;;;;;;;1.70;1.50;;;18.70;59.20;;;;;;5114283;28;20441;-43
2021/12/12 10:34:08;;;;;;;2.50;2.20;;;18.20;57.10;;;;;;5117855;28;20473;-44
2021/12/12 10:36:39;;;;;;;3.27;2.10;;;17.40;53.90;;;;;;5118227;28;20532;-44
2021/12/12 10:39:11;;;;;;;2.50;2.30;;;16.50;51.90;;;;;;5118286;27;20429;-43
2021/12/12 10:41:53;;;;;;;2.57;2.00;;;15.70;51.90;;;;;;5118407;28;20425;-44
2021/12/12 10:44:27;;;;;;;4.53;2.80;;;15.00;51.40;;;;;;5114382;28;20521;-43
2021/12/12 10:47:05;;;;;;;5.33;1.80;;;14.60;62.00;;;;;;5116295;28;20509;-48
2021/12/12 10:49:52;;;;;;;3.40;1.40;;;14.80;71.80;;;;;;5116557;28;20456;-47
2021/12/12 10:52:30;;;;;;;3.10;1.53;;;15.40;76.40;;;;;;5117981;28;20419;-47
2021/12/12 10:55:00;;;;;;;3.97;1.93;;;16.30;73.80;;;;;;5119117;28;20472;-49
2021/12/12 10:57:29;;;;;;;1.73;1.60;;;17.00;71.10;;;;;;5118255;28;20510;-43
2021/12/12 11:00:11;;;;;;;3.23;2.13;;;17.40;68.40;;;;;;5118434;28;20474;-44
2021/12/12 11:02:58;;;;;;;3.00;2.27;;;17.60;64.00;;;;;;5120110;28;20844;-44
2021/12/12 11:05:36;;;;;;;2.93;2.20;;;17.80;57.20;;;;;;5120156;28;20421;-43
2021/12/12 11:08:19;;;;;;;2.40;2.20;;;17.50;52.80;;;;;;5117648;28;20769;-42
2021/12/12 11:10:47;;;;;;;1.97;1.70;;;17.20;52.00;;;;;;5083335;28;20427;-44
2021/12/12 11:13:52;;;;;;;2.17;1.97;;;16.80;50.90;;;;;;5099385;28;20543;-43
2021/12/12 11:16:26;;;;;;;2.03;1.73;;;16.50;50.60;;;;;;5085848;28;20536;-44
2021/12/12 11:19:00;;;;;;;2.30;2.10;;;16.10;50.10;;;;;;5097945;28;20843;-44
2021/12/12 11:21:35;;;;;;;2.80;2.23;;;15.70;49.90;;;;;;5097144;28;20434;-42
2021/12/12 11:24:11;;;;;;;2.30;2.10;;;15.30;49.30;;;;;;5098866;28;20435;-43
2021/12/12 11:26:57;;;;;;;2.50;2.30;;;14.80;49.20;;;;;;5097451;28;20496;-42
2021/12/12 11:29:31;;;;;;;3.40;2.57;;;14.40;49.30;;;;;;5098145;28;20943;-42
2021/12/12 11:32:03;;;;;;;2.67;2.23;;;14.00;49.70;;;;;;5115514;28;20830;-42
2021/12/12 11:34:30;;;;;;;3.33;2.20;;;13.60;49.80;;;;;;5117120;28;20846;-44
2021/12/12 11:37:07;;;;;;;1.93;1.73;;;13.40;50.10;;;;;;5117349;28;20425;-45
2021/12/12 11:39:58;;;;;;;2.20;1.97;;;13.20;50.40;;;;;;5117519;28;20800;-44
2021/12/12 11:43:01;;;;;;;3.10;2.80;;;13.00;50.60;;;;;;5115908;28;20430;-44
2021/12/12 11:45:51;;;;;;;2.37;1.87;;;12.90;50.90;;;;;;5115234;28;20439;-44
2021/12/12 11:48:53;;;;;;;2.30;1.97;;;12.70;51.00;;;;;;5114797;28;20544;-44
2021/12/12 11:51:28;;;;;;;3.10;2.80;;;12.50;51.00;;;;;;5117398;28;20461;-45
2021/12/12 11:54:03;;;;;;;2.20;2.00;;;12.40;51.00;;;;;;5117697;28;20886;-46
2021/12/12 11:56:45;;;;;;;3.23;2.50;;;12.20;51.10;;;;;;5118156;28;20842;-45
2021/12/12 11:59:19;;;;;;;2.40;2.20;;;12.10;51.30;;;;;;5117115;28;20418;-45
2021/12/12 12:02:03;;;;;;;2.40;2.10;;;12.00;51.40;;;;;;5117106;28;20413;-42
2021/12/12 12:05:08;;;;;;;3.10;2.60;;;12.00;51.80;;;;;;5118051;28;20419;-43
2021/12/12 12:08:11;;;;;;;3.07;2.70;;;12.00;51.70;;;;;;5117471;28;20420;-43
2021/12/12 12:11:07;;;;;;;2.97;2.77;;;12.00;51.70;;;;;;5117968;28;20767;-41
2021/12/12 12:14:09;;;;;;;2.40;2.20;;;12.00;51.40;;;;;;5117690;28;20537;-43
2021/12/12 12:16:53;;;;;;;3.80;2.37;;;12.10;51.70;;;;;;5118705;27;20445;-44
2021/12/12 12:19:41;;;;;;;2.80;2.50;;;12.20;51.80;;;;;;5117638;28;20420;-44
2021/12/12 12:22:10;;;;;;;2.80;2.30;;;12.30;51.60;;;;;;5118899;28;20415;-45
2021/12/12 12:24:58;;;;;;;2.97;2.70;;;12.30;51.60;;;;;;5118203;28;20485;-42
2021/12/12 12:27:51;;;;;;;2.37;2.17;;;12.30;51.30;;;;;;5117909;28;20424;-44
2021/12/12 12:30:29;;;;;;;2.87;2.30;;;12.50;51.30;;;;;;5110729;28;20456;-42
2021/12/12 12:33:13;;;;;;;2.93;2.63;;;12.60;51.40;;;;;;5118686;28;21003;-42
2021/12/12 12:36:04;;;;;;;2.40;2.20;;;12.80;51.30;;;;;;5117361;28;20406;-45
2021/12/12 12:38:58;;;;;;;3.10;2.80;;;12.80;51.10;;;;;;5118090;28;20512;-43
2021/12/12 12:42:00;;;;;;;2.93;2.60;;;12.70;50.50;;;;;;5118225;28;20429;-42
2021/12/12 12:45:03;;;;;;;3.17;2.73;;;12.50;50.20;;;;;;5118311;28;20413;-42
2021/12/12 12:47:41;;;;;;;3.10;2.80;;;12.30;50.10;;;;;;5118551;28;20490;-42
2021/12/12 12:50:28;;;;;;;2.40;2.20;;;12.00;50.30;;;;;;5117415;28;20430;-44
2021/12/12 12:53:28;;;;;;;3.33;3.03;;;11.80;50.60;;;;;;5117677;28;20968;-45
2021/12/12 12:56:24;;;;;;;3.00;2.70;;;11.60;51.10;;;;;;5116581;27;20800;-45
2021/12/12 12:58:59;;;;;;;3.13;2.53;;;11.40;51.30;;;;;;5115320;28;20437;-45
2021/12/12 13:01:36;;;;;;;4.30;2.77;;;11.20;51.50;;;;;;5117719;28;20870;-46
2021/12/12 13:04:27;;;;;;;5.03;3.00;;;11.10;51.80;;;;;;5118137;28;20445;-44
2021/12/12 13:07:25;;;;;;;3.07;2.77;;;11.00;52.20;;;;;;5117455;28;20460;-45
2021/12/12 13:10:09;;;;;;;3.63;3.33;;;10.90;52.40;;;;;;5100205;28;20456;-45
2021/12/12 13:12:42;;;;;;;3.87;3.00;;;10.70;52.10;;;;;;5097144;28;20979;-43
2021/12/12 13:15:33;;;;;;;2.80;2.50;;;10.50;52.00;;;;;;5096165;28;20419;-43
2021/12/12 13:18:29;;;;;;;3.40;3.10;;;10.40;52.40;;;;;;5055651;28;20430;-44
2021/12/12 13:21:20;;;;;;;3.20;2.63;;;10.30;52.80;;;;;;5095261;28;20414;-46
2021/12/12 13:24:16;;;;;;;3.83;2.83;;;10.30;53.20;;;;;;5109423;28;20417;-45
2021/12/12 13:26:57;;;;;;;2.70;2.50;;;10.20;53.30;;;;;;5115944;28;20448;-45
2021/12/12 13:29:54;;;;;;;3.37;3.03;;;10.20;53.40;;;;;;5117251;28;20820;-45
2021/12/12 13:32:28;;;;;;;3.37;2.97;;;10.10;53.60;;;;;;5117536;28;20414;-44
2021/12/12 13:35:08;;;;;;;2.70;2.50;;;10.00;53.80;;;;;;5117069;28;20423;-44
2021/12/12 13:37:45;;;;;;;4.10;3.20;;;9.90;54.80;;;;;;5114699;28;20436;-45
2021/12/12 13:40:18;;;;;;;3.50;3.20;;;9.90;54.90;;;;;;5099537;28;20420;-44
2021/12/12 13:43:06;;;;;;;3.53;3.20;;;9.80;55.10;;;;;;5115547;28;20710;-43
2021/12/12 13:45:33;;;;;;;2.87;2.57;;;9.70;55.00;;;;;;5105010;28;20428;-44
2021/12/12 13:48:26;;;;;;;3.90;3.00;;;9.70;55.30;;;;;;5104955;28;20433;-44
2021/12/12 13:51:23;;;;;;;4.23;3.47;;;9.60;55.50;;;;;;5113791;28;20434;-43